Terminal Aerodrome Forecast
Issued by NWS

Home | Current Version | Previous Version | Text Only | Print | Product List | Glossary On
Versions: 1 2 3 4 5 6 7 8 9 10 11 12 13 14 15 16
000
FTUS43 KMPX 242320
TAFRWF
TAF
KRWF 242320Z 2500/2524 08008KT 3SM -DZ BR OVC006
      TEMPO 2502/2506 BKN004
     FM250600 03003KT 4SM BR VCSH OVC004
     FM251600 26006KT P6SM SCT008 OVC010
     FM251800 25010KT P6SM SCT010 BKN025
     FM252300 28009KT P6SM SCT020 OVC040=

USA.gov is the U.S. government's official web portal to all federal, state and local government web resources and services.